Time;durP1;ratioP1;P1;durP2;ratioP2;P2;SDS_P1;SDS_P2;PMS_P1;PMS_P2;Temp;Humidity;BMP_temperature;BMP_pressure;BME280_temperature;BME280_humidity;BME280_pressure;Samples;Min_cycle;Max_cycle;Signal;HPM_P1;HPM_P2
2022/08/25 00:01:31;;;;;;;6.97;6.13;;;20.20;1.00;;;;;;5031309;28;20472;-52
2022/08/25 00:03:58;;;;;;;7.50;5.60;;;20.20;1.00;;;;;;5030909;28;20446;-52
2022/08/25 00:06:24;;;;;;;12.30;6.97;;;20.10;1.00;;;;;;5031699;28;20441;-51
2022/08/25 00:08:50;;;;;;;9.20;5.70;;;20.10;1.00;;;;;;5014655;28;20478;-52
2022/08/25 00:11:21;;;;;;;10.90;5.70;;;20.10;1.00;;;;;;5031247;28;20194;-51
2022/08/25 00:13:51;;;;;;;12.50;6.23;;;20.00;1.00;;;;;;5028118;28;21014;-52
2022/08/25 00:16:19;;;;;;;8.90;6.07;;;20.00;8.00;;;;;;5015197;28;20442;-52
2022/08/25 00:18:49;;;;;;;7.23;5.70;;;20.00;29.20;;;;;;5017395;28;20450;-51
2022/08/25 00:21:15;;;;;;;8.90;5.50;;;20.00;26.70;;;;;;5011982;28;20541;-52
2022/08/25 00:23:42;;;;;;;8.73;6.27;;;20.10;29.20;;;;;;5007415;28;20516;-52
2022/08/25 00:26:08;;;;;;;8.33;6.27;;;20.10;35.50;;;;;;5009384;28;20454;-52
2022/08/25 00:28:35;;;;;;;6.43;5.53;;;20.10;25.90;;;;;;5010755;28;21384;-51
2022/08/25 00:31:01;;;;;;;9.33;6.40;;;20.00;27.20;;;;;;5007633;28;20449;-52
2022/08/25 00:33:29;;;;;;;10.20;6.47;;;20.00;53.90;;;;;;5008308;28;20445;-51
2022/08/25 00:35:56;;;;;;;10.77;6.80;;;20.10;93.50;;;;;;5007914;28;20908;-51
2022/08/25 00:38:22;;;;;;;11.07;6.80;;;20.00;57.50;;;;;;5026714;28;21076;-52
2022/08/25 00:41:04;;;;;;;8.73;5.83;;;20.00;99.90;;;;;;5028473;28;20441;-51
2022/08/25 00:43:36;;;;;;;11.87;6.03;;;19.90;99.90;;;;;;5022999;28;20791;-52
2022/08/25 00:46:03;;;;;;;7.57;6.10;;;19.80;99.90;;;;;;5022971;28;20449;-52
2022/08/25 00:48:28;;;;;;;7.00;6.30;;;19.80;99.90;;;;;;5027507;28;20495;-52
2022/08/25 00:50:54;;;;;;;7.90;5.97;;;19.80;99.90;;;;;;5009752;28;20923;-52
2022/08/25 00:53:20;;;;;;;13.30;6.20;;;19.80;99.90;;;;;;5016894;28;20262;-52
2022/08/25 00:55:46;;;;;;;8.17;5.90;;;19.80;99.90;;;;;;5021860;28;20194;-52
2022/08/25 00:58:17;;;;;;;9.40;6.87;;;19.70;99.90;;;;;;5016236;28;20271;-52
2022/08/25 01:00:49;;;;;;;7.60;6.17;;;19.70;99.90;;;;;;5012479;28;20815;-53
2022/08/25 01:03:17;;;;;;;12.37;7.00;;;19.60;99.90;;;;;;5027229;28;20893;-51
2022/08/25 01:05:45;;;;;;;7.50;6.03;;;19.60;99.90;;;;;;5034476;28;20926;-52
2022/08/25 01:08:11;;;;;;;11.47;6.70;;;19.60;99.90;;;;;;5028071;28;20430;-53
2022/08/25 01:10:41;;;;;;;8.20;6.23;;;19.60;99.90;;;;;;5023333;28;20472;-51
2022/08/25 01:13:13;;;;;;;8.43;6.13;;;19.60;99.90;;;;;;5019160;28;20446;-52
2022/08/25 01:15:39;;;;;;;9.70;7.10;;;19.60;99.90;;;;;;5016044;28;20948;-51
2022/08/25 01:18:04;;;;;;;9.00;6.23;;;19.60;1.00;;;;;;5018378;28;20480;-52
2022/08/25 01:20:31;;;;;;;9.17;6.60;;;19.60;99.90;;;;;;5032922;28;20198;-52
2022/08/25 01:22:58;;;;;;;8.20;6.67;;;19.50;1.00;;;;;;5025313;28;20232;-53
2022/08/25 01:25:36;;;;;;;7.53;6.53;;;19.50;1.00;;;;;;5019649;28;20456;-52
2022/08/25 01:28:02;;;;;;;10.87;7.60;;;19.50;1.00;;;;;;5031108;28;20464;-52
2022/08/25 01:30:28;;;;;;;8.77;6.47;;;19.40;1.00;;;;;;5029115;28;20875;-52
2022/08/25 01:32:53;;;;;;;9.17;6.57;;;19.40;1.00;;;;;;5030795;28;20450;-52
2022/08/25 01:35:20;;;;;;;8.40;6.90;;;19.30;1.00;;;;;;5023348;28;20595;-53
2022/08/25 01:37:47;;;;;;;9.23;6.93;;;19.30;1.00;;;;;;5017552;28;20431;-52
2022/08/25 01:40:12;;;;;;;10.00;6.90;;;19.30;1.00;;;;;;5012974;28;20191;-52
2022/08/25 01:43:06;;;;;;;10.13;7.10;;;19.30;23.10;;;;;;5028548;28;20507;-53
2022/08/25 01:45:33;;;;;;;9.70;7.30;;;19.20;91.70;;;;;;5007626;28;20927;-53
2022/08/25 01:47:59;;;;;;;9.53;7.43;;;19.20;99.90;;;;;;5006778;28;20829;-53
2022/08/25 01:50:26;;;;;;;9.37;6.70;;;19.20;99.90;;;;;;5012411;28;20499;-53
2022/08/25 01:53:05;;;;;;;12.70;6.70;;;19.20;99.90;;;;;;5008433;28;20442;-53
2022/08/25 01:55:50;;;;;;;8.07;6.60;;;19.20;99.90;;;;;;5008880;28;20438;-53
2022/08/25 01:58:19;;;;;;;9.33;6.30;;;19.20;99.90;;;;;;5008100;28;20924;-52
2022/08/25 02:00:46;;;;;;;11.93;6.40;;;19.20;99.90;;;;;;5006765;28;20437;-53
2022/08/25 02:03:12;;;;;;;11.90;6.93;;;19.10;99.90;;;;;;5006849;28;20449;-53
2022/08/25 02:05:38;;;;;;;12.40;7.80;;;19.00;99.90;;;;;;5007914;28;20452;-53
2022/08/25 02:08:03;;;;;;;8.60;7.47;;;19.00;99.90;;;;;;5006746;28;20202;-53
2022/08/25 02:10:29;;;;;;;8.80;6.83;;;19.00;1.00;;;;;;5009344;28;20340;-53
2022/08/25 02:12:55;;;;;;;11.50;6.90;;;19.00;1.00;;;;;;5008598;28;20217;-53
2022/08/25 02:15:20;;;;;;;8.33;7.40;;;19.00;1.00;;;;;;5008677;28;20439;-53
2022/08/25 02:17:46;;;;;;;10.60;7.60;;;19.00;1.00;;;;;;5008070;28;20830;-53
2022/08/25 02:20:12;;;;;;;9.97;7.50;;;19.00;1.00;;;;;;5018562;28;20198;-53
2022/08/25 02:22:37;;;;;;;9.63;7.50;;;19.00;1.00;;;;;;5007589;28;20288;-53
2022/08/25 02:25:04;;;;;;;10.30;7.70;;;19.00;1.00;;;;;;5007363;28;20277;-53
2022/08/25 02:27:30;;;;;;;7.97;7.10;;;18.90;1.00;;;;;;5015591;28;20199;-53
2022/08/25 02:29:55;;;;;;;9.43;6.97;;;18.90;1.00;;;;;;5009015;28;21578;-52
2022/08/25 02:32:21;;;;;;;8.40;7.50;;;18.90;1.00;;;;;;5012005;28;20188;-53
2022/08/25 02:34:47;;;;;;;8.33;7.00;;;18.90;1.00;;;;;;5007129;28;20187;-53
2022/08/25 02:37:12;;;;;;;9.30;7.73;;;18.80;61.60;;;;;;5014493;28;20240;-53
2022/08/25 02:39:38;;;;;;;11.40;8.20;;;18.80;99.90;;;;;;5024020;28;20628;-53
2022/08/25 02:42:04;;;;;;;12.57;6.93;;;18.80;99.90;;;;;;5021811;28;20221;-53
2022/08/25 02:44:30;;;;;;;8.97;6.43;;;18.80;99.90;;;;;;5018261;28;20191;-53
2022/08/25 02:46:56;;;;;;;13.23;7.77;;;18.70;99.90;;;;;;5030020;28;20560;-54
2022/08/25 02:49:23;;;;;;;9.00;6.90;;;18.70;99.90;;;;;;5032154;28;20461;-53
2022/08/25 02:51:48;;;;;;;9.33;6.67;;;18.70;99.90;;;;;;5033536;28;20437;-53
2022/08/25 02:54:15;;;;;;;7.97;7.17;;;18.70;99.90;;;;;;5031564;28;20804;-53
2022/08/25 02:56:41;;;;;;;10.97;7.60;;;18.70;1.00;;;;;;5033046;28;20193;-54
2022/08/25 02:59:07;;;;;;;10.97;7.30;;;18.70;1.00;;;;;;5027461;28;20532;-57
2022/08/25 03:01:33;;;;;;;9.30;7.03;;;18.70;1.00;;;;;;5026400;28;20441;-53
2022/08/25 03:04:00;;;;;;;9.53;7.50;;;18.70;1.00;;;;;;5029318;28;21024;-51
2022/08/25 03:06:26;;;;;;;12.10;8.00;;;18.70;1.00;;;;;;5026759;28;20210;-53
2022/08/25 03:08:53;;;;;;;9.80;7.90;;;18.70;1.00;;;;;;5022032;28;20501;-53
2022/08/25 03:11:19;;;;;;;11.13;7.90;;;18.70;1.00;;;;;;5029695;28;20927;-54
2022/08/25 03:13:45;;;;;;;11.00;7.17;;;18.70;1.00;;;;;;5032211;28;20440;-54
2022/08/25 03:16:11;;;;;;;14.93;8.23;;;18.60;1.00;;;;;;5025167;28;20453;-53
2022/08/25 03:18:39;;;;;;;11.43;8.20;;;18.60;1.00;;;;;;5016863;28;20430;-52
2022/08/25 03:21:05;;;;;;;13.70;7.97;;;18.50;99.90;;;;;;5030812;28;20645;-53
2022/08/25 03:23:31;;;;;;;8.67;7.50;;;18.60;99.90;;;;;;5018166;28;20489;-54
2022/08/25 03:28:41;;;;;;;10.77;7.60;;;18.60;99.90;;;;;;5031601;28;20198;-53
2022/08/25 03:31:08;;;;;;;9.63;7.90;;;18.50;99.90;;;;;;5031838;28;20950;-53
2022/08/25 03:33:34;;;;;;;9.63;7.50;;;18.50;99.90;;;;;;5031271;28;20180;-53
2022/08/25 03:36:00;;;;;;;9.83;7.83;;;18.50;1.00;;;;;;5014405;28;20426;-52
2022/08/25 03:38:26;;;;;;;11.00;7.67;;;18.40;4.60;;;;;;5030246;28;21025;-54
2022/08/25 03:40:53;;;;;;;12.40;8.30;;;18.40;99.90;;;;;;5030346;28;20684;-53
2022/08/25 03:43:20;;;;;;;10.80;8.10;;;18.40;99.90;;;;;;5030590;28;20604;-55
2022/08/25 03:45:46;;;;;;;10.23;8.17;;;18.40;99.90;;;;;;5034302;28;20447;-54
2022/08/25 03:48:13;;;;;;;12.60;8.53;;;18.40;1.00;;;;;;5032514;28;20425;-53
2022/08/25 03:50:45;;;;;;;10.00;8.20;;;18.30;99.90;;;;;;5025659;28;20549;-54
2022/08/25 03:53:11;;;;;;;9.37;7.80;;;18.30;1.00;;;;;;5032304;28;20425;-54
2022/08/25 03:55:36;;;;;;;11.43;8.30;;;18.30;99.90;;;;;;5031488;28;20944;-53
2022/08/25 03:58:02;;;;;;;11.10;8.07;;;18.30;99.90;;;;;;5022604;28;20192;-53
2022/08/25 04:00:28;;;;;;;17.97;8.60;;;18.30;99.90;;;;;;5025844;28;20209;-54
2022/08/25 04:02:53;;;;;;;10.63;8.07;;;18.30;99.90;;;;;;5018155;28;20202;-54
2022/08/25 04:05:19;;;;;;;12.00;8.07;;;18.30;50.90;;;;;;5025740;28;20190;-54
2022/08/25 04:07:44;;;;;;;17.40;9.23;;;18.30;1.00;;;;;;5021395;28;20191;-53
2022/08/25 04:10:11;;;;;;;9.80;8.00;;;18.30;1.00;;;;;;5025834;28;20938;-54
2022/08/25 04:12:37;;;;;;;8.87;7.93;;;18.20;99.90;;;;;;5016899;28;20566;-54
2022/08/25 04:15:04;;;;;;;12.27;8.20;;;18.20;99.90;;;;;;5030334;28;20528;-55
2022/08/25 04:17:30;;;;;;;14.43;9.10;;;18.30;1.00;;;;;;5025295;28;20430;-54
2022/08/25 04:19:56;;;;;;;9.73;8.07;;;18.30;99.90;;;;;;5026759;28;20500;-54
2022/08/25 04:22:22;;;;;;;12.80;8.90;;;18.20;1.00;;;;;;5025052;28;20313;-55
2022/08/25 04:24:47;;;;;;;9.30;7.63;;;18.20;99.90;;;;;;5024497;28;20219;-51
2022/08/25 04:27:14;;;;;;;10.63;8.23;;;18.10;93.30;;;;;;5032334;28;20434;-55
2022/08/25 04:29:39;;;;;;;13.00;8.73;;;18.10;99.90;;;;;;5028184;28;20217;-54
2022/08/25 04:32:05;;;;;;;10.03;8.40;;;18.10;1.00;;;;;;5032585;28;20520;-54
2022/08/25 04:34:31;;;;;;;13.60;9.30;;;18.10;99.90;;;;;;5027588;28;20289;-54
2022/08/25 04:36:58;;;;;;;17.00;9.23;;;18.10;1.00;;;;;;5025193;28;20886;-55
2022/08/25 04:39:24;;;;;;;14.47;9.27;;;18.20;1.00;;;;;;5028554;28;21015;-54
2022/08/25 04:41:50;;;;;;;11.50;8.33;;;18.20;1.00;;;;;;5019830;28;20446;-53
2022/08/25 04:44:16;;;;;;;12.23;9.50;;;18.20;1.00;;;;;;5018601;28;20193;-54
2022/08/25 04:46:42;;;;;;;10.50;8.30;;;18.20;1.00;;;;;;5021701;28;20528;-54
2022/08/25 04:49:08;;;;;;;13.97;8.50;;;18.20;99.90;;;;;;5032234;28;20523;-54
2022/08/25 04:51:38;;;;;;;11.00;8.10;;;18.30;1.00;;;;;;5031046;28;20445;-54
2022/08/25 04:54:07;;;;;;;17.73;7.93;;;18.30;99.90;;;;;;5016051;28;21090;-54
2022/08/25 04:56:33;;;;;;;15.77;8.90;;;18.30;99.90;;;;;;5013780;28;21179;-54
2022/08/25 04:59:05;;;;;;;12.00;8.13;;;18.40;99.90;;;;;;5029870;28;20453;-54
2022/08/25 05:01:31;;;;;;;11.17;8.33;;;18.40;99.90;;;;;;5028194;28;20473;-53
2022/08/25 05:03:59;;;;;;;10.23;8.43;;;18.40;1.00;;;;;;5028696;28;20441;-54
2022/08/25 05:06:27;;;;;;;11.47;8.00;;;18.40;1.00;;;;;;5031540;28;20524;-54
2022/08/25 05:08:52;;;;;;;12.43;9.20;;;18.50;1.00;;;;;;5027057;28;20446;-54
2022/08/25 05:11:18;;;;;;;11.13;8.30;;;18.50;99.90;;;;;;5025255;28;20440;-54
2022/08/25 05:13:46;;;;;;;11.37;8.00;;;18.60;20.10;;;;;;5029605;28;20241;-53
2022/08/25 05:16:12;;;;;;;15.93;8.43;;;18.60;1.00;;;;;;5032699;28;22363;-54
2022/08/25 05:18:38;;;;;;;13.90;7.63;;;18.60;99.90;;;;;;5032439;28;20436;-54
2022/08/25 05:21:06;;;;;;;13.77;9.37;;;18.70;99.90;;;;;;5030009;28;20445;-53
2022/08/25 05:23:33;;;;;;;20.00;9.57;;;18.70;51.60;;;;;;5027507;28;20231;-54
2022/08/25 05:26:08;;;;;;;14.00;10.00;;;18.70;23.90;;;;;;5016254;28;20438;-54
2022/08/25 05:28:33;;;;;;;11.90;9.60;;;18.70;99.90;;;;;;5015763;28;20437;-54
2022/08/25 05:31:02;;;;;;;19.77;9.67;;;18.80;99.90;;;;;;5025943;28;20472;-54
2022/08/25 05:33:28;;;;;;;11.80;9.07;;;18.80;1.00;;;;;;5014494;28;20188;-55
2022/08/25 05:35:54;;;;;;;19.13;9.30;;;18.80;1.00;;;;;;5023622;28;20437;-54
2022/08/25 05:38:20;;;;;;;12.03;9.80;;;18.90;1.00;;;;;;5024756;28;20449;-54
2022/08/25 05:40:45;;;;;;;11.97;9.30;;;18.90;1.00;;;;;;5033200;28;20451;-50
2022/08/25 05:43:13;;;;;;;18.07;9.23;;;19.00;1.00;;;;;;5025752;28;20183;-54
2022/08/25 05:45:39;;;;;;;13.43;9.70;;;19.00;1.00;;;;;;5043790;28;20190;-54
2022/08/25 05:48:05;;;;;;;16.63;9.80;;;19.10;99.90;;;;;;5019131;28;20458;-54
2022/08/25 05:50:31;;;;;;;12.30;10.30;;;19.10;99.90;;;;;;5028302;28;20473;-54
2022/08/25 05:52:56;;;;;;;14.60;9.50;;;19.20;99.90;;;;;;5026615;28;20441;-54
2022/08/25 05:55:22;;;;;;;11.70;9.67;;;19.30;99.90;;;;;;5029653;28;20187;-54
2022/08/25 05:57:48;;;;;;;18.83;11.17;;;19.40;99.90;;;;;;5029305;28;20305;-50
2022/08/25 06:00:13;;;;;;;12.47;9.07;;;19.50;1.00;;;;;;5030460;28;20237;-50
2022/08/25 06:02:40;;;;;;;17.03;10.00;;;19.70;1.00;;;;;;5026779;28;20195;-50
2022/08/25 06:05:10;;;;;;;13.87;10.67;;;19.80;99.90;;;;;;5023587;28;20186;-50
2022/08/25 06:07:36;;;;;;;24.03;10.23;;;19.90;99.90;;;;;;5026125;28;20460;-54
2022/08/25 06:10:05;;;;;;;14.60;11.67;;;20.10;99.90;;;;;;5024301;28;20465;-54
2022/08/25 06:12:32;;;;;;;18.90;10.70;;;20.20;99.90;;;;;;5030032;28;20187;-53
2022/08/25 06:14:58;;;;;;;16.70;12.60;;;20.20;66.80;;;;;;5029915;28;22101;-55
2022/08/25 06:17:23;;;;;;;22.07;13.37;;;20.00;22.00;;;;;;5025579;28;20441;-54
2022/08/25 06:19:49;;;;;;;22.20;14.80;;;19.80;93.40;;;;;;5024531;28;20276;-54
2022/08/25 06:22:14;;;;;;;24.90;13.83;;;19.80;99.90;;;;;;5023859;28;20222;-54
2022/08/25 06:24:40;;;;;;;23.03;15.87;;;19.80;99.90;;;;;;5028061;28;20567;-54
2022/08/25 06:27:06;;;;;;;25.40;16.20;;;19.80;99.90;;;;;;5028125;28;20232;-54
2022/08/25 06:29:31;;;;;;;19.83;15.23;;;19.70;99.90;;;;;;5021544;28;20298;-55
2022/08/25 06:31:57;;;;;;;22.77;16.40;;;19.70;99.90;;;;;;5026267;28;20190;-54
2022/08/25 06:34:22;;;;;;;21.50;14.50;;;19.80;99.90;;;;;;5021948;28;20257;-51
2022/08/25 06:36:49;;;;;;;22.30;15.00;;;19.80;99.90;;;;;;5022150;28;20205;-53
2022/08/25 06:39:15;;;;;;;24.37;14.90;;;19.90;99.90;;;;;;5024506;28;20187;-54
2022/08/25 06:41:41;;;;;;;26.37;15.40;;;20.00;99.90;;;;;;5026846;28;20425;-54
2022/08/25 06:44:06;;;;;;;22.47;16.60;;;20.00;99.90;;;;;;5027668;28;20438;-54
2022/08/25 06:46:32;;;;;;;20.43;15.37;;;20.00;99.90;;;;;;5023305;28;20282;-50
2022/08/25 06:48:58;;;;;;;22.30;16.00;;;19.90;99.90;;;;;;5013662;28;20215;-50
2022/08/25 06:51:25;;;;;;;22.90;14.50;;;19.90;99.90;;;;;;5023012;28;20242;-50
2022/08/25 06:53:51;;;;;;;19.53;14.50;;;19.90;99.90;;;;;;5025273;28;20179;-51
2022/08/25 06:56:19;;;;;;;22.80;15.43;;;20.00;99.90;;;;;;5021717;28;20960;-50
2022/08/25 06:58:46;;;;;;;19.73;15.03;;;20.00;99.90;;;;;;5031748;28;20457;-51
2022/08/25 07:01:19;;;;;;;23.00;13.93;;;20.10;99.90;;;;;;5026839;28;20437;-51
2022/08/25 07:03:45;;;;;;;19.80;16.13;;;20.10;99.90;;;;;;5027349;28;20430;-51
2022/08/25 07:06:10;;;;;;;20.53;15.57;;;20.20;99.90;;;;;;5027825;28;20441;-51
2022/08/25 07:08:37;;;;;;;22.13;14.93;;;20.20;99.90;;;;;;5023971;28;20202;-51
2022/08/25 07:11:07;;;;;;;19.60;15.10;;;20.20;99.90;;;;;;5027608;28;20544;-51
2022/08/25 07:13:33;;;;;;;25.80;15.77;;;20.20;99.90;;;;;;5026394;28;20470;-51
2022/08/25 07:15:59;;;;;;;20.93;14.17;;;20.10;99.90;;;;;;5027048;28;20605;-51
2022/08/25 07:18:25;;;;;;;25.20;15.43;;;20.20;99.90;;;;;;5020692;28;20787;-51
2022/08/25 07:20:52;;;;;;;19.93;14.60;;;20.20;99.90;;;;;;5026811;28;20294;-53
2022/08/25 07:23:18;;;;;;;23.67;16.80;;;20.20;99.90;;;;;;5022676;28;20477;-52
2022/08/25 07:25:44;;;;;;;19.53;15.00;;;20.30;99.90;;;;;;5027727;28;20459;-51
2022/08/25 07:28:10;;;;;;;27.70;15.90;;;20.40;99.90;;;;;;5024394;28;20438;-51
2022/08/25 07:30:36;;;;;;;24.13;16.37;;;20.40;51.20;;;;;;5028057;28;20300;-51
2022/08/25 07:33:02;;;;;;;23.10;15.33;;;20.40;89.10;;;;;;5025805;28;21156;-51
2022/08/25 07:35:31;;;;;;;18.03;13.53;;;20.50;42.50;;;;;;5027524;28;20206;-51
2022/08/25 07:37:57;;;;;;;24.67;15.30;;;20.50;14.20;;;;;;5045523;28;20278;-52
2022/08/25 07:40:26;;;;;;;17.63;13.40;;;20.60;35.50;;;;;;5030230;28;20532;-51
2022/08/25 07:42:55;;;;;;;18.33;13.23;;;20.70;1.00;;;;;;5030927;28;20886;-51
2022/08/25 07:45:29;;;;;;;18.33;14.63;;;20.70;1.00;;;;;;5030173;28;20430;-51
2022/08/25 07:47:55;;;;;;;18.40;13.50;;;20.80;1.00;;;;;;5027980;28;20480;-51
2022/08/25 07:50:22;;;;;;;15.53;12.60;;;20.90;1.00;;;;;;5029623;28;20461;-51
2022/08/25 07:52:48;;;;;;;17.67;13.17;;;21.10;1.00;;;;;;5025152;28;20873;-51
2022/08/25 07:55:14;;;;;;;17.87;13.77;;;21.30;1.00;;;;;;5027487;28;20441;-51
2022/08/25 07:57:40;;;;;;;19.87;13.70;;;21.40;1.00;;;;;;5030510;28;20433;-50
2022/08/25 08:00:07;;;;;;;16.27;12.00;;;21.40;1.00;;;;;;5027238;28;20199;-51
2022/08/25 08:02:32;;;;;;;19.33;13.80;;;21.50;1.00;;;;;;5028892;28;20442;-51
2022/08/25 08:04:58;;;;;;;18.30;13.77;;;21.40;1.00;;;;;;5029851;28;20518;-51
2022/08/25 08:07:26;;;;;;;17.10;13.97;;;21.50;1.00;;;;;;5030929;28;20543;-51
2022/08/25 08:09:52;;;;;;;16.63;12.50;;;21.50;1.00;;;;;;5025039;28;20476;-51
2022/08/25 08:12:18;;;;;;;16.93;13.33;;;21.60;1.00;;;;;;5030138;28;20480;-51
2022/08/25 08:14:44;;;;;;;19.83;14.33;;;21.50;1.00;;;;;;5027430;28;20469;-51
2022/08/25 08:17:11;;;;;;;19.40;14.07;;;21.50;1.00;;;;;;5030771;28;20186;-51
2022/08/25 08:19:37;;;;;;;21.60;14.60;;;21.40;1.00;;;;;;5027824;28;20528;-51
2022/08/25 08:22:04;;;;;;;21.37;12.93;;;21.40;1.00;;;;;;5030602;28;20552;-51
2022/08/25 08:24:37;;;;;;;14.70;12.13;;;21.40;1.00;;;;;;5025864;28;20215;-50
2022/08/25 08:27:05;;;;;;;19.17;13.00;;;21.40;1.00;;;;;;5026940;28;20425;-51
2022/08/25 08:29:31;;;;;;;19.00;12.70;;;21.40;1.00;;;;;;5029154;28;20472;-51
2022/08/25 08:31:57;;;;;;;17.23;12.80;;;21.30;1.00;;;;;;5030657;28;20457;-51
2022/08/25 08:34:23;;;;;;;19.03;13.43;;;21.40;1.00;;;;;;5026914;28;20445;-51
2022/08/25 08:36:48;;;;;;;21.43;14.70;;;21.40;1.00;;;;;;5022465;28;20661;-51
2022/08/25 08:39:14;;;;;;;17.57;12.47;;;21.40;1.00;;;;;;5029587;28;20195;-50
2022/08/25 08:42:17;;;;;;;13.53;11.80;;;21.50;1.00;;;;;;5030776;28;20618;-51
2022/08/25 08:44:46;;;;;;;18.03;13.10;;;21.60;1.00;;;;;;5028550;28;20278;-51
2022/08/25 08:47:36;;;;;;;22.60;13.10;;;21.70;1.00;;;;;;5023998;28;20437;-51
2022/08/25 08:50:23;;;;;;;14.27;12.10;;;21.50;1.00;;;;;;5029504;28;20464;-51
2022/08/25 08:53:06;;;;;;;12.43;11.13;;;21.50;1.00;;;;;;5028992;28;20444;-52
2022/08/25 08:55:47;;;;;;;16.33;12.43;;;21.60;1.00;;;;;;5028325;28;20437;-51
2022/08/25 08:58:22;;;;;;;17.03;12.43;;;21.60;1.00;;;;;;5026203;28;20433;-51
2022/08/25 09:00:53;;;;;;;14.20;12.23;;;21.80;1.00;;;;;;5031776;28;20418;-53
2022/08/25 09:03:36;;;;;;;18.97;12.07;;;22.00;1.00;;;;;;5025278;28;20469;-52
2022/08/25 09:06:24;;;;;;;15.20;11.10;;;22.10;1.00;;;;;;5030318;28;21001;-52
2022/08/25 09:08:54;;;;;;;12.97;11.07;;;22.20;1.00;;;;;;5030403;28;20445;-51
2022/08/25 09:11:48;;;;;;;15.93;10.33;;;22.50;1.00;;;;;;5029908;28;20863;-52
2022/08/25 09:14:37;;;;;;;17.50;10.80;;;22.60;1.00;;;;;;5023481;28;20433;-52
2022/08/25 09:17:04;;;;;;;14.43;10.83;;;22.70;1.00;;;;;;5031784;28;20410;-52
2022/08/25 09:20:11;;;;;;;13.70;10.70;;;22.80;1.00;;;;;;5028835;28;20444;-52
2022/08/25 09:22:51;;;;;;;13.70;11.47;;;22.90;1.00;;;;;;5025717;28;20469;-53
2022/08/25 09:25:34;;;;;;;12.50;10.93;;;23.00;1.00;;;;;;5027816;28;20950;-52
2022/08/25 09:28:27;;;;;;;16.10;11.13;;;23.00;99.90;;;;;;5034683;28;20520;-53
2022/08/25 09:31:08;;;;;;;14.50;10.93;;;23.10;99.90;;;;;;5029324;28;20469;-51
2022/08/25 09:33:34;;;;;;;14.50;11.30;;;23.10;99.90;;;;;;5031907;28;20457;-52
2022/08/25 09:36:01;;;;;;;16.97;11.93;;;23.20;99.90;;;;;;5025641;28;20484;-53
2022/08/25 09:38:29;;;;;;;14.77;11.33;;;23.20;99.90;;;;;;5040636;28;20279;-52
2022/08/25 09:40:58;;;;;;;16.73;12.37;;;23.40;99.90;;;;;;5030582;28;20856;-56
2022/08/25 09:43:30;;;;;;;12.43;11.07;;;23.50;99.90;;;;;;5028922;28;20495;-51
2022/08/25 09:46:15;;;;;;;15.23;11.80;;;23.60;99.90;;;;;;5028898;28;20446;-54
2022/08/25 09:49:10;;;;;;;16.03;11.30;;;23.80;99.90;;;;;;5028319;28;20781;-54
2022/08/25 09:51:40;;;;;;;14.40;11.50;;;23.90;99.90;;;;;;5025599;28;20429;-53
2022/08/25 09:54:12;;;;;;;14.97;11.00;;;24.10;99.90;;;;;;5029771;28;20431;-54
2022/08/25 09:57:00;;;;;;;17.83;11.30;;;24.50;99.90;;;;;;5028950;28;20442;-54
2022/08/25 09:59:26;;;;;;;17.40;10.97;;;24.60;99.90;;;;;;5027948;28;20449;-56
2022/08/25 10:01:55;;;;;;;12.37;11.00;;;24.70;99.90;;;;;;5028592;28;20919;-54
2022/08/25 10:04:37;;;;;;;13.17;11.00;;;24.80;99.90;;;;;;5028817;28;20640;-52
2022/08/25 10:07:19;;;;;;;22.63;19.40;;;25.00;99.90;;;;;;5025294;28;20499;-52
2022/08/25 10:09:58;;;;;;;19.87;12.97;;;25.10;99.90;;;;;;5022678;28;20469;-52
2022/08/25 10:12:32;;;;;;;16.67;12.80;;;25.40;99.90;;;;;;5026268;28;20441;-54
2022/08/25 10:14:57;;;;;;;15.27;11.33;;;25.60;99.90;;;;;;5026354;28;20517;-53
2022/08/25 10:17:29;;;;;;;15.10;11.47;;;26.00;99.90;;;;;;5027493;28;20513;-53
2022/08/25 10:20:20;;;;;;;14.17;11.40;;;26.20;99.90;;;;;;5025334;28;20266;-52
2022/08/25 10:22:47;;;;;;;14.10;10.27;;;26.40;99.90;;;;;;5026673;28;20490;-52
2022/08/25 10:25:17;;;;;;;13.47;11.43;;;26.90;99.90;;;;;;5023451;28;20459;-52
2022/08/25 10:28:11;;;;;;;13.40;11.50;;;27.40;99.90;;;;;;5027333;28;20446;-54
2022/08/25 10:30:55;;;;;;;13.60;10.57;;;27.70;99.90;;;;;;5027113;28;20461;-52
2022/08/25 10:33:27;;;;;;;16.50;10.50;;;27.90;99.90;;;;;;5023631;28;20535;-53
2022/08/25 10:36:22;;;;;;;11.30;10.20;;;28.40;99.90;;;;;;5026116;28;20871;-52
2022/08/25 10:39:00;;;;;;;10.83;9.83;;;28.90;99.90;;;;;;5025502;28;20437;-54
2022/08/25 10:41:56;;;;;;;11.50;9.73;;;29.20;99.90;;;;;;5028935;28;20420;-52
2022/08/25 10:48:14;;;;;;;15.77;8.60;;;29.70;99.90;;;;;;5024102;28;20447;-57
2022/08/25 10:50:45;;;;;;;25.37;12.40;;;30.60;99.90;;;;;;5023787;28;20835;-56
2022/08/25 10:53:33;;;;;;;14.83;10.00;;;31.10;99.90;;;;;;5026472;28;20441;-57
2022/08/25 10:56:05;;;;;;;15.97;7.60;;;31.60;99.90;;;;;;5024739;28;20436;-50
2022/08/25 10:59:05;;;;;;;9.30;7.57;;;32.00;99.90;;;;;;5023598;28;20429;-52
2022/08/25 11:01:30;;;;;;;12.67;7.37;;;32.30;99.90;;;;;;5006469;28;20481;-51
2022/08/25 11:04:11;;;;;;;8.33;7.20;;;32.60;99.90;;;;;;5028510;28;20871;-51
2022/08/25 11:06:39;;;;;;;9.13;6.37;;;33.20;99.90;;;;;;5030796;28;20179;-53
2022/08/25 11:09:09;;;;;;;9.93;6.90;;;33.80;99.90;;;;;;5032377;28;20524;-51
2022/08/25 11:11:38;;;;;;;7.10;5.67;;;34.10;99.90;;;;;;5032315;28;20507;-51
2022/08/25 11:14:10;;;;;;;7.50;5.67;;;33.90;99.90;;;;;;5029283;28;20456;-51
2022/08/25 11:16:44;;;;;;;5.80;5.30;;;33.90;99.90;;;;;;5030941;28;20857;-51
2022/08/25 11:19:29;;;;;;;7.20;5.77;;;34.10;99.90;;;;;;5027784;28;20436;-51
2022/08/25 11:22:28;;;;;;;10.80;5.80;;;33.90;99.90;;;;;;5028035;28;20436;-51
2022/08/25 11:25:00;;;;;;;11.93;5.60;;;33.80;99.90;;;;;;5022402;28;20456;-51
2022/08/25 11:27:46;;;;;;;6.70;5.53;;;33.60;99.90;;;;;;5030960;28;20457;-51
2022/08/25 11:30:15;;;;;;;9.27;5.83;;;32.60;99.90;;;;;;5028413;28;20476;-51
2022/08/25 11:32:46;;;;;;;5.27;4.00;;;32.10;99.90;;;;;;5044674;28;20465;-50
2022/08/25 11:35:15;;;;;;;6.83;5.00;;;31.90;99.90;;;;;;5030435;28;20453;-50
2022/08/25 11:38:05;;;;;;;8.43;5.43;;;31.20;99.90;;;;;;5030699;28;20422;-53
2022/08/25 11:40:45;;;;;;;7.93;4.37;;;31.40;99.90;;;;;;5027765;28;20553;-53
2022/08/25 11:43:40;;;;;;;10.23;4.47;;;32.20;99.90;;;;;;5030401;28;20933;-53
2022/08/25 11:46:20;;;;;;;6.20;4.10;;;33.10;99.90;;;;;;5026514;28;20429;-53
2022/08/25 11:49:07;;;;;;;5.90;4.57;;;33.80;99.90;;;;;;5030339;28;20440;-53
2022/08/25 11:51:53;;;;;;;7.73;4.20;;;33.90;99.90;;;;;;5036031;28;20450;-53
2022/08/25 11:54:23;;;;;;;5.03;4.23;;;33.30;99.90;;;;;;5030155;28;20453;-51
2022/08/25 11:57:17;;;;;;;11.70;4.40;;;33.40;99.90;;;;;;5032071;28;20949;-51
2022/08/25 11:59:48;;;;;;;6.03;4.30;;;33.60;99.90;;;;;;5029176;28;20812;-50
2022/08/25 12:02:29;;;;;;;6.63;4.37;;;33.80;99.90;;;;;;5025600;28;20508;-51
2022/08/25 12:04:56;;;;;;;7.93;4.47;;;32.80;99.90;;;;;;5030228;28;20433;-51
2022/08/25 12:07:25;;;;;;;6.97;4.40;;;32.10;99.90;;;;;;5026436;28;20455;-50
2022/08/25 12:09:54;;;;;;;7.77;5.20;;;31.50;99.90;;;;;;5027119;28;20473;-50
2022/08/25 12:12:31;;;;;;;9.80;5.00;;;31.60;99.90;;;;;;5032916;28;20414;-50
2022/08/25 12:15:18;;;;;;;5.00;4.30;;;31.50;99.90;;;;;;5029142;28;20461;-51
2022/08/25 12:18:04;;;;;;;6.70;4.17;;;31.90;99.90;;;;;;5027505;28;20430;-50
2022/08/25 12:20:52;;;;;;;9.70;4.20;;;31.80;99.90;;;;;;5025903;28;20920;-50
2022/08/25 12:23:42;;;;;;;6.53;4.40;;;32.50;99.90;;;;;;5030772;28;20870;-51
2022/08/25 12:26:17;;;;;;;7.50;4.00;;;33.00;99.90;;;;;;5027031;28;20862;-51
2022/08/25 12:29:23;;;;;;;7.90;4.10;;;32.90;99.90;;;;;;5026332;28;20436;-51
2022/08/25 12:32:09;;;;;;;5.40;3.90;;;32.60;99.90;;;;;;4999306;28;20509;-51
2022/08/25 12:35:09;;;;;;;5.20;4.40;;;32.60;99.90;;;;;;5025797;28;20445;-51
2022/08/25 12:38:04;;;;;;;5.47;4.10;;;32.10;99.90;;;;;;5026210;28;20500;-50
2022/08/25 12:40:38;;;;;;;7.90;4.30;;;31.10;99.90;;;;;;5028746;28;20560;-50
2022/08/25 12:43:34;;;;;;;7.80;4.20;;;30.40;99.90;;;;;;5030534;28;20524;-51
2022/08/25 12:46:18;;;;;;;5.70;4.17;;;30.40;99.90;;;;;;5026174;28;20848;-50
2022/08/25 12:49:06;;;;;;;5.57;4.27;;;30.20;99.90;;;;;;5023050;28;20477;-50
2022/08/25 12:51:34;;;;;;;8.17;4.17;;;29.90;99.90;;;;;;5029441;28;20533;-51
2022/08/25 12:54:37;;;;;;;5.57;4.77;;;30.30;99.90;;;;;;5030162;28;21247;-53
2022/08/25 12:57:17;;;;;;;8.53;4.20;;;30.90;99.90;;;;;;5025012;28;20442;-50
2022/08/25 12:59:49;;;;;;;11.70;4.53;;;30.70;99.90;;;;;;5028297;28;20923;-50
2022/08/25 13:02:21;;;;;;;8.80;4.40;;;30.30;99.90;;;;;;5028879;28;20441;-50
2022/08/25 13:04:58;;;;;;;4.93;4.20;;;30.00;99.90;;;;;;5029984;28;20429;-50
2022/08/25 13:07:42;;;;;;;8.07;4.30;;;30.50;99.90;;;;;;5028797;28;20434;-51